Time;durP1;ratioP1;P1;durP2;ratioP2;P2;SDS_P1;SDS_P2;PMS_P1;PMS_P2;Temp;Humidity;BMP_temperature;BMP_pressure;BME280_temperature;BME280_humidity;BME280_pressure;Samples;Min_cycle;Max_cycle;Signal;HPM_P1;HPM_P2
2021/10/14 00:01:25;;;;;;;4.08;3.77;;;;;;;7.46;100.00;100176.34;1716583;83;20961;-45
2021/10/14 00:03:51;;;;;;;5.30;4.80;;;;;;;7.44;100.00;100170.77;1716576;83;21381;-45
2021/10/14 00:06:18;;;;;;;4.47;4.17;;;;;;;7.45;100.00;100175.92;1716934;83;21947;-45
2021/10/14 00:08:44;;;;;;;5.10;4.75;;;;;;;7.45;100.00;100175.92;1716767;83;21548;-45
2021/10/14 00:11:11;;;;;;;5.78;5.15;;;;;;;7.44;100.00;100184.94;1716716;83;21065;-45
2021/10/14 00:13:37;;;;;;;5.20;4.67;;;;;;;7.44;100.00;100183.65;1717055;83;21053;-45
2021/10/14 00:16:04;;;;;;;5.40;4.97;;;;;;;7.42;100.00;100194.41;1716805;83;21013;-45
2021/10/14 00:18:31;;;;;;;7.87;5.58;;;;;;;7.43;100.00;100199.97;1716752;83;21082;-45
2021/10/14 00:20:57;;;;;;;5.80;5.30;;;;;;;7.44;100.00;100198.65;1716570;83;20910;-45
2021/10/14 00:23:24;;;;;;;5.92;5.35;;;;;;;7.41;100.00;100203.84;1692192;83;20919;-44
2021/10/14 00:25:50;;;;;;;6.40;5.90;;;;;;;7.43;100.00;100205.12;1716679;83;20898;-45
2021/10/14 00:28:17;;;;;;;6.65;6.05;;;;;;;7.41;100.00;100202.55;1708060;83;21422;-45
2021/10/14 00:30:43;;;;;;;7.22;6.28;;;;;;;7.40;100.00;100205.99;1693434;84;21767;-45
2021/10/14 00:33:10;;;;;;;6.03;5.53;;;;;;;7.40;100.00;100213.72;1693592;84;21491;-45
2021/10/14 00:35:36;;;;;;;6.60;5.97;;;;;;;7.38;100.00;100219.77;1693453;84;21060;-45
2021/10/14 00:38:03;;;;;;;7.03;5.80;;;;;;;7.37;100.00;100221.48;1663687;84;21019;-45
2021/10/14 00:40:32;;;;;;;6.25;5.55;;;;;;;7.37;100.00;100233.06;1693485;83;20870;-45
2021/10/14 00:42:58;;;;;;;6.85;6.17;;;;;;;7.35;100.00;100228.36;1693426;84;21135;-45
2021/10/14 00:45:24;;;;;;;6.90;6.28;;;;;;;7.34;100.00;100230.52;1693628;84;21043;-44
2021/10/14 00:47:51;;;;;;;7.95;6.35;;;;;;;7.32;100.00;100229.23;1693500;84;20909;-45
2021/10/14 00:50:18;;;;;;;6.65;6.05;;;;;;;7.31;100.00;100236.53;1693248;84;20964;-45
2021/10/14 00:52:44;;;;;;;7.50;6.12;;;;;;;7.29;100.00;100233.58;1693252;84;21072;-46
2021/10/14 00:55:12;;;;;;;8.28;6.55;;;;;;;7.28;100.00;100246.03;1693588;84;21937;-45
2021/10/14 00:57:39;;;;;;;6.83;6.22;;;;;;;7.26;100.00;100252.46;1693748;84;20912;-45
2021/10/14 01:00:08;;;;;;;9.08;7.33;;;;;;;7.23;100.00;100263.23;1693324;84;20960;-45
2021/10/14 01:02:35;;;;;;;6.92;6.28;;;;;;;7.23;100.00;100259.38;1693508;84;21553;-45
2021/10/14 01:05:02;;;;;;;7.78;6.58;;;;;;;7.21;100.00;100263.69;1664116;83;20976;-46
2021/10/14 01:07:29;;;;;;;7.97;6.75;;;;;;;7.18;100.00;100262.81;1693296;84;21144;-44
2021/10/14 01:09:56;;;;;;;6.80;6.12;;;;;;;7.18;100.00;100269.70;1693352;84;20917;-46
2021/10/14 01:12:22;;;;;;;7.08;6.40;;;;;;;7.15;100.00;100272.30;1693430;84;21613;-45
2021/10/14 01:14:51;;;;;;;7.33;6.50;;;;;;;7.13;100.00;100274.87;1693396;84;20957;-44
2021/10/14 01:17:17;;;;;;;6.83;6.17;;;;;;;7.11;100.00;100273.19;1693668;84;20932;-44
2021/10/14 01:19:44;;;;;;;7.70;6.35;;;;;;;7.08;100.00;100276.62;1693435;84;21208;-45
2021/10/14 01:22:10;;;;;;;8.15;6.95;;;;;;;7.06;100.00;100275.79;1663503;84;21003;-45
2021/10/14 01:24:37;;;;;;;9.45;7.08;;;;;;;7.03;100.00;100279.67;1693687;84;21502;-45
2021/10/14 01:27:06;;;;;;;6.17;5.60;;;;;;;7.00;100.00;100281.82;1693386;84;21625;-45
2021/10/14 01:29:33;;;;;;;6.37;5.75;;;;;;;7.00;100.00;100286.97;1711471;83;20946;-45
2021/10/14 01:32:01;;;;;;;10.05;6.30;;;;;;;6.98;100.00;100291.72;1716690;83;21150;-45
2021/10/14 01:34:28;;;;;;;6.47;5.53;;;;;;;6.93;100.00;100299.46;1692179;83;21425;-45
2021/10/14 01:36:54;;;;;;;6.70;6.10;;;;;;;6.91;100.00;100296.05;1716707;83;21536;-45
2021/10/14 01:39:21;;;;;;;6.87;6.28;;;;;;;6.88;100.00;100304.63;1716681;83;21013;-45
2021/10/14 01:41:47;;;;;;;7.33;6.35;;;;;;;6.86;100.00;100303.78;1716876;83;21511;-45
2021/10/14 01:44:14;;;;;;;6.17;5.65;;;;;;;6.85;100.00;100308.50;1716633;83;21064;-45
2021/10/14 01:46:40;;;;;;;7.70;6.37;;;;;;;6.82;100.00;100320.11;1716914;83;20922;-45
2021/10/14 01:49:07;;;;;;;6.62;6.08;;;;;;;6.82;100.00;100330.40;1716564;83;20931;-45
2021/10/14 01:51:34;;;;;;;7.50;6.75;;;;;;;6.81;100.00;100334.25;1716893;82;21579;-45
2021/10/14 01:54:00;;;;;;;8.75;6.42;;;;;;;6.80;100.00;100338.55;1716568;83;20997;-45
2021/10/14 01:56:27;;;;;;;7.17;6.42;;;;;;;6.79;100.00;100338.55;1716870;83;21128;-44
2021/10/14 01:58:53;;;;;;;7.30;6.05;;;;;;;6.79;100.00;100335.98;1716587;83;21448;-44
2021/10/14 02:01:19;;;;;;;7.45;6.60;;;;;;;6.78;100.00;100336.84;1716791;83;21015;-44
2021/10/14 02:03:46;;;;;;;9.65;6.20;;;;;;;6.78;100.00;100343.27;1716688;83;21009;-45
2021/10/14 02:06:13;;;;;;;8.65;6.37;;;;;;;6.76;100.00;100353.59;1716884;83;21018;-45
2021/10/14 02:08:39;;;;;;;9.40;6.20;;;;;;;6.77;100.00;100360.45;1716764;83;21940;-45
2021/10/14 02:11:06;;;;;;;6.22;5.72;;;;;;;6.76;100.00;100364.72;1716651;83;21531;-45
2021/10/14 02:13:33;;;;;;;10.78;5.95;;;;;;;6.78;100.00;100373.73;1691905;83;21001;-45
2021/10/14 02:16:00;;;;;;;6.90;6.28;;;;;;;6.79;100.00;100374.57;1716768;83;21005;-44
2021/10/14 02:18:26;;;;;;;7.22;6.53;;;;;;;6.76;100.00;100375.01;1716718;83;20955;-45
2021/10/14 02:20:53;;;;;;;6.97;6.28;;;;;;;6.76;100.00;100379.31;1716742;83;21818;-45
2021/10/14 02:23:19;;;;;;;7.78;6.12;;;;;;;6.77;100.00;100395.17;1716587;83;21029;-44
2021/10/14 02:25:46;;;;;;;6.17;5.60;;;;;;;6.76;100.00;100381.89;1716481;83;21489;-45
2021/10/14 02:28:12;;;;;;;6.55;5.95;;;;;;;6.76;100.00;100390.89;1716672;83;21504;-44
2021/10/14 02:30:38;;;;;;;7.00;5.65;;;;;;;6.77;100.00;100388.75;1716717;83;20883;-45
2021/10/14 02:33:05;;;;;;;8.05;6.10;;;;;;;6.75;100.00;100390.02;1716459;83;21015;-44
2021/10/14 02:35:31;;;;;;;6.67;6.00;;;;;;;6.77;100.00;100405.47;1716634;83;20954;-44
2021/10/14 02:37:58;;;;;;;6.17;5.67;;;;;;;6.76;100.00;100392.18;1716414;83;21022;-45
2021/10/14 02:40:25;;;;;;;6.95;6.12;;;;;;;6.76;100.00;100406.33;1716589;83;21005;-45
2021/10/14 02:42:51;;;;;;;6.40;5.87;;;;;;;6.76;100.00;100407.62;1691916;83;20961;-45
2021/10/14 02:45:18;;;;;;;6.58;5.95;;;;;;;6.76;100.00;100406.33;1716533;83;23284;-45
2021/10/14 02:47:46;;;;;;;7.28;6.58;;;;;;;6.76;100.00;100415.34;1716436;83;21010;-46
2021/10/14 02:50:12;;;;;;;7.12;6.42;;;;;;;6.75;100.00;100413.17;1716543;83;20939;-44
2021/10/14 02:52:40;;;;;;;6.50;5.90;;;;;;;6.75;100.00;100409.31;1716746;83;21468;-43
2021/10/14 02:55:08;;;;;;;6.92;6.33;;;;;;;6.74;100.00;100416.61;1716622;83;20950;-45
2021/10/14 02:57:35;;;;;;;7.10;6.45;;;;;;;6.75;100.00;100409.77;1717091;83;22240;-45
2021/10/14 03:00:01;;;;;;;7.85;7.15;;;;;;;6.74;100.00;100419.19;1716485;83;20946;-45
2021/10/14 03:02:27;;;;;;;8.88;7.03;;;;;;;6.76;100.00;100427.75;1691990;83;21041;-44
2021/10/14 03:04:54;;;;;;;7.67;6.75;;;;;;;6.77;100.00;100433.77;1716483;83;21013;-45
2021/10/14 03:07:20;;;;;;;10.23;6.83;;;;;;;6.77;100.00;100429.91;1716502;83;20954;-45
2021/10/14 03:09:47;;;;;;;8.73;7.83;;;;;;;6.79;100.00;100441.05;1716465;83;21207;-45
2021/10/14 03:12:13;;;;;;;8.43;7.53;;;;;;;6.79;100.00;100449.19;1716601;83;20996;-44
2021/10/14 03:14:40;;;;;;;10.03;7.40;;;;;;;6.79;100.00;100460.77;1716617;83;20926;-44
2021/10/14 03:17:09;;;;;;;10.03;7.67;;;;;;;6.78;100.00;100461.21;1716585;83;21001;-44
2021/10/14 03:19:37;;;;;;;9.28;8.03;;;;;;;6.80;100.00;100456.91;1716422;83;21010;-45
2021/10/14 03:22:04;;;;;;;8.50;7.40;;;;;;;6.80;100.00;100463.34;1716479;83;21131;-44
2021/10/14 03:24:31;;;;;;;9.80;8.43;;;;;;;6.81;100.00;100477.05;1716756;83;21506;-44
2021/10/14 03:26:58;;;;;;;9.85;8.50;;;;;;;6.80;100.00;100477.50;1716573;83;20922;-44
2021/10/14 03:29:24;;;;;;;10.23;8.75;;;;;;;6.81;100.00;100475.35;1716584;83;21022;-45
2021/10/14 03:31:52;;;;;;;8.75;7.80;;;;;;;6.79;100.00;100479.64;1716777;83;21021;-45
2021/10/14 03:34:19;;;;;;;9.18;8.20;;;;;;;6.80;100.00;100489.08;1716830;83;21101;-44
2021/10/14 03:36:45;;;;;;;13.48;9.18;;;;;;;6.81;100.00;100497.22;1716507;83;20927;-43
2021/10/14 03:39:12;;;;;;;13.05;8.95;;;;;;;6.81;100.00;100488.22;1716479;83;20962;-43
2021/10/14 03:41:38;;;;;;;11.38;8.45;;;;;;;6.83;100.00;100494.66;1716508;83;21090;-44
2021/10/14 03:45:22;;;;;;;11.48;9.05;;;;;;;6.88;100.00;100499.36;1798542;79;22564;-45
2021/10/14 03:47:49;;;;;;;11.60;8.55;;;;;;;6.85;100.00;100504.06;1758273;80;20865;-44
2021/10/14 03:50:16;;;;;;;10.30;8.58;;;;;;;6.88;100.00;100505.80;1755865;80;21128;-44
2021/10/14 03:52:42;;;;;;;13.53;8.95;;;;;;;6.88;100.00;100516.09;1749813;82;20920;-44
2021/10/14 03:55:09;;;;;;;11.45;8.38;;;;;;;6.89;100.00;100520.38;1750046;82;20960;-44
2021/10/14 03:57:35;;;;;;;13.10;8.88;;;;;;;6.92;100.00;100524.22;1750105;82;21466;-44
2021/10/14 04:00:05;;;;;;;14.63;9.40;;;;;;;6.94;100.00;100525.07;1749909;82;21403;-45
2021/10/14 04:02:33;;;;;;;24.63;8.70;;;;;;;6.94;100.00;100522.50;1720957;82;21367;-45
2021/10/14 04:04:59;;;;;;;12.88;9.13;;;;;;;6.96;100.00;100526.37;1749709;81;20932;-44
2021/10/14 04:07:26;;;;;;;17.73;7.83;;;;;;;6.98;100.00;100523.36;1750072;82;21402;-45
2021/10/14 04:09:52;;;;;;;11.55;8.25;;;;;;;6.99;100.00;100534.08;1720579;82;20971;-45
2021/10/14 04:12:18;;;;;;;9.83;8.80;;;;;;;6.98;100.00;100539.64;1750321;82;20921;-44
2021/10/14 04:14:45;;;;;;;10.20;8.45;;;;;;;6.98;100.00;100544.79;1720381;82;21202;-44
2021/10/14 04:17:11;;;;;;;14.55;9.05;;;;;;;7.01;100.00;100552.95;1750138;81;20944;-44
2021/10/14 04:19:38;;;;;;;13.28;9.23;;;;;;;7.01;100.00;100550.38;1749930;82;20889;-45
2021/10/14 04:22:05;;;;;;;11.12;8.60;;;;;;;7.01;100.00;100561.51;1749965;82;20968;-45
2021/10/14 04:24:33;;;;;;;12.45;8.10;;;;;;;7.01;100.00;100565.81;1750221;82;20888;-45
2021/10/14 04:26:59;;;;;;;9.50;8.58;;;;;;;7.00;100.00;100564.95;1750181;81;21108;-44
2021/10/14 04:29:26;;;;;;;15.70;9.20;;;;;;;7.01;100.00;100574.38;1750111;82;21457;-45
2021/10/14 04:31:53;;;;;;;9.80;8.38;;;;;;;7.01;100.00;100583.84;1749964;82;20873;-44
2021/10/14 04:34:19;;;;;;;9.43;8.43;;;;;;;7.01;100.00;100585.96;1750213;81;21473;-44
2021/10/14 04:36:46;;;;;;;9.53;8.25;;;;;;;7.04;100.00;100593.67;1750201;82;21333;-44
2021/10/14 04:39:12;;;;;;;10.60;8.25;;;;;;;7.07;100.00;100603.13;1750276;82;21838;-44
2021/10/14 04:41:39;;;;;;;9.33;8.40;;;;;;;7.08;100.00;100600.97;1749889;82;21549;-45
2021/10/14 04:44:05;;;;;;;8.83;7.95;;;;;;;7.10;100.00;100602.27;1750319;81;20928;-44
2021/10/14 04:46:31;;;;;;;11.48;8.48;;;;;;;7.11;100.00;100620.27;1750720;82;20889;-45
2021/10/14 04:48:58;;;;;;;12.47;8.60;;;;;;;7.11;100.00;100622.84;1750804;82;21402;-44
2021/10/14 04:51:24;;;;;;;11.15;8.60;;;;;;;7.12;100.00;100624.56;1750772;82;20905;-44
2021/10/14 04:53:50;;;;;;;11.30;8.90;;;;;;;7.13;100.00;100630.13;1750613;82;21423;-44
2021/10/14 04:56:17;;;;;;;11.53;8.90;;;;;;;7.14;100.00;100636.16;1750488;82;21446;-45
2021/10/14 04:58:43;;;;;;;11.30;9.38;;;;;;;7.13;100.00;100639.14;1750233;82;20988;-45
2021/10/14 05:01:09;;;;;;;14.87;9.55;;;;;;;7.13;100.00;100645.58;1750520;82;20869;-45
2021/10/14 05:03:36;;;;;;;12.98;9.33;;;;;;;7.15;100.00;100645.15;1750077;82;21150;-44
2021/10/14 05:06:03;;;;;;;12.63;9.75;;;;;;;7.17;100.00;100652.88;1750391;82;21476;-44
2021/10/14 05:08:30;;;;;;;11.68;9.38;;;;;;;7.18;100.00;100659.75;1750368;82;21510;-43
2021/10/14 05:10:56;;;;;;;12.98;9.48;;;;;;;7.17;100.00;100662.73;1750421;82;21057;-44
2021/10/14 05:13:23;;;;;;;15.10;10.50;;;;;;;7.17;99.75;100669.17;1750221;82;20861;-44
2021/10/14 05:15:49;;;;;;;14.15;9.48;;;;;;;7.22;99.75;100672.20;1750385;82;21236;-44
2021/10/14 05:18:16;;;;;;;12.73;9.90;;;;;;;7.23;99.52;100681.64;1750377;82;21470;-43
2021/10/14 05:20:42;;;;;;;14.60;10.18;;;;;;;7.23;99.40;100682.92;1750078;82;21394;-44
2021/10/14 05:23:08;;;;;;;12.33;9.55;;;;;;;7.26;99.44;100695.80;1722627;82;21067;-44
2021/10/14 05:25:35;;;;;;;15.10;9.83;;;;;;;7.25;99.13;100692.34;1750498;82;21399;-44
2021/10/14 05:28:02;;;;;;;15.10;11.20;;;;;;;7.27;99.04;100707.81;1750301;82;21379;-44
2021/10/14 05:30:31;;;;;;;17.98;10.95;;;;;;;7.29;98.99;100706.93;1723112;82;21434;-44
2021/10/14 05:32:57;;;;;;;21.57;10.95;;;;;;;7.31;98.40;100717.24;1750103;82;20937;-44
2021/10/14 05:35:24;;;;;;;14.28;11.05;;;;;;;7.34;98.19;100718.52;1750153;82;20928;-44
2021/10/14 05:37:50;;;;;;;17.23;11.73;;;;;;;7.35;98.04;100721.53;1750362;82;21434;-44
2021/10/14 05:40:16;;;;;;;14.93;11.20;;;;;;;7.37;97.96;100725.41;1750083;82;21788;-44
2021/10/14 05:42:43;;;;;;;17.35;11.75;;;;;;;7.37;97.06;100731.39;1750427;82;20861;-44
2021/10/14 05:45:10;;;;;;;21.30;12.47;;;;;;;7.40;96.66;100736.55;1740783;81;20953;-44
2021/10/14 05:47:37;;;;;;;18.90;12.33;;;;;;;7.39;97.00;100738.69;1736058;82;21569;-44
2021/10/14 05:50:06;;;;;;;17.52;12.35;;;;;;;7.42;96.93;100742.99;1736149;82;20901;-44
2021/10/14 05:52:32;;;;;;;19.42;12.95;;;;;;;7.43;97.03;100751.98;1736461;82;21128;-44
2021/10/14 05:55:01;;;;;;;19.95;12.65;;;;;;;7.44;96.71;100751.12;1736219;82;20933;-44
2021/10/14 05:57:28;;;;;;;17.92;12.70;;;;;;;7.48;96.98;100768.33;1735994;82;20909;-43
2021/10/14 05:59:56;;;;;;;30.25;14.80;;;;;;;7.48;97.06;100761.88;1736120;82;20988;-43
2021/10/14 06:02:22;;;;;;;20.00;13.45;;;;;;;7.52;97.00;100759.30;1736399;82;20866;-43
2021/10/14 06:04:50;;;;;;;31.50;14.07;;;;;;;7.53;96.52;100759.73;1736152;82;21202;-43
2021/10/14 06:07:17;;;;;;;22.42;14.15;;;;;;;7.58;96.88;100776.03;1736126;81;21482;-44
2021/10/14 06:09:44;;;;;;;19.00;13.68;;;;;;;7.60;96.84;100787.20;1736025;82;20890;-44
2021/10/14 06:12:13;;;;;;;19.57;14.30;;;;;;;7.62;96.32;100789.34;1736089;81;21447;-43
2021/10/14 06:14:40;;;;;;;27.32;14.53;;;;;;;7.64;96.32;100790.19;1736409;82;21388;-43
2021/10/14 06:17:07;;;;;;;21.75;15.08;;;;;;;7.66;96.37;100801.80;1736333;82;21804;-43
2021/10/14 06:19:33;;;;;;;23.65;14.43;;;;;;;7.69;95.25;100806.50;1715077;82;21456;-44
2021/10/14 06:22:00;;;;;;;19.82;13.75;;;;;;;7.71;94.05;100821.56;1736253;82;21443;-44
2021/10/14 06:24:26;;;;;;;31.60;19.45;;;;;;;7.70;94.41;100820.27;1735954;82;20984;-44
2021/10/14 06:26:52;;;;;;;26.48;15.93;;;;;;;7.71;94.61;100826.72;1736350;82;20913;-44
2021/10/14 06:29:19;;;;;;;28.30;19.50;;;;;;;7.71;94.64;100825.84;1736175;82;21138;-44
2021/10/14 06:31:45;;;;;;;19.20;14.50;;;;;;;7.71;94.28;100821.97;1736224;82;20886;-44
2021/10/14 06:34:12;;;;;;;23.15;16.32;;;;;;;7.72;94.27;100830.13;1736011;82;21055;-44
2021/10/14 06:36:38;;;;;;;69.75;55.65;;;;;;;7.72;93.91;100840.03;1736325;82;20976;-44
2021/10/14 06:39:05;;;;;;;30.62;18.37;;;;;;;7.72;93.68;100842.60;1736229;82;20988;-45
2021/10/14 06:41:32;;;;;;;23.50;14.75;;;;;;;7.72;94.12;100850.34;1715230;82;21204;-43
2021/10/14 06:44:01;;;;;;;46.75;30.65;;;;;;;7.73;94.09;100842.16;1737049;81;20973;-43
2021/10/14 06:46:28;;;;;;;25.92;16.97;;;;;;;7.75;94.44;100845.59;1750372;82;21023;-44
2021/10/14 06:48:54;;;;;;;22.67;14.45;;;;;;;7.79;93.70;100864.50;1750046;82;20888;-44
2021/10/14 06:51:21;;;;;;;22.15;14.10;;;;;;;7.84;93.81;100860.20;1750173;82;20884;-44
2021/10/14 06:53:47;;;;;;;23.40;14.60;;;;;;;7.88;93.87;100867.06;1749928;82;21917;-44
2021/10/14 06:56:14;;;;;;;21.52;13.78;;;;;;;7.89;93.45;100867.08;1750243;82;21482;-44
2021/10/14 06:58:41;;;;;;;24.72;14.58;;;;;;;7.94;93.60;100874.78;1749990;81;20964;-44
2021/10/14 07:01:07;;;;;;;20.95;13.85;;;;;;;7.99;93.37;100871.80;1750079;82;20936;-44
2021/10/14 07:03:34;;;;;;;22.52;14.47;;;;;;;8.02;92.47;100879.94;1749993;80;20853;-44
2021/10/14 07:06:01;;;;;;;16.57;12.88;;;;;;;8.03;92.62;100886.81;1750009;82;21138;-44
2021/10/14 07:08:27;;;;;;;20.75;13.48;;;;;;;8.05;92.95;100892.41;1749962;82;20884;-44
2021/10/14 07:10:54;;;;;;;18.85;12.50;;;;;;;8.07;93.15;100892.84;1750095;82;20967;-44
2021/10/14 07:13:23;;;;;;;21.23;13.05;;;;;;;8.11;92.99;100894.55;1750039;82;20921;-43
2021/10/14 07:15:50;;;;;;;20.75;13.55;;;;;;;8.12;93.02;100901.00;1750132;82;21351;-43
2021/10/14 07:18:17;;;;;;;20.20;13.13;;;;;;;8.15;93.07;100910.44;1750372;82;21084;-45
2021/10/14 07:20:43;;;;;;;20.80;13.18;;;;;;;8.19;92.77;100916.89;1750085;82;20925;-45
2021/10/14 07:23:11;;;;;;;20.08;12.55;;;;;;;8.25;91.56;100916.03;1750361;82;20995;-44
2021/10/14 07:25:39;;;;;;;16.82;12.28;;;;;;;8.31;91.58;100935.77;1750029;82;20979;-44
2021/10/14 07:28:06;;;;;;;19.87;11.95;;;;;;;8.35;91.12;100941.38;1750114;82;20967;-44
2021/10/14 07:30:36;;;;;;;18.67;12.10;;;;;;;8.42;91.43;100938.34;1722386;82;21095;-44
2021/10/14 07:33:05;;;;;;;21.17;12.78;;;;;;;8.48;91.02;100947.38;1750302;82;20991;-43
2021/10/14 07:35:36;;;;;;;17.92;12.82;;;;;;;8.50;90.44;100959.00;1749984;82;21054;-44
2021/10/14 07:38:03;;;;;;;18.65;11.55;;;;;;;8.51;90.23;100955.56;1749914;82;20905;-43
2021/10/14 07:40:36;;;;;;;17.42;12.45;;;;;;;8.47;89.83;100959.41;1749978;82;20924;-44
2021/10/14 07:42:58;;;;;;;26.55;13.80;;;;;;;8.42;89.89;100968.01;1748565;82;21144;-45
2021/10/14 07:45:25;;;;;;;26.20;12.30;;;;;;;8.40;90.76;100965.86;1743093;81;20889;-45
2021/10/14 07:47:51;;;;;;;18.62;12.65;;;;;;;8.42;91.18;100974.05;1715211;82;20861;-44
2021/10/14 07:50:18;;;;;;;22.50;12.93;;;;;;;8.41;90.52;100984.35;1736070;82;21433;-44
2021/10/14 07:52:45;;;;;;;24.65;12.85;;;;;;;8.44;90.61;100980.06;1736058;82;21023;-44
2021/10/14 07:55:11;;;;;;;17.23;12.33;;;;;;;8.48;90.26;100987.38;1735956;82;21124;-44
2021/10/14 07:57:39;;;;;;;16.77;12.30;;;;;;;8.51;90.88;100992.98;1735995;82;21063;-44
2021/10/14 08:00:07;;;;;;;21.20;13.28;;;;;;;8.49;90.79;100991.67;1736168;82;21214;-43
2021/10/14 08:02:36;;;;;;;25.80;14.33;;;;;;;8.49;91.38;100995.55;1735873;82;20953;-44
2021/10/14 08:05:03;;;;;;;32.23;13.85;;;;;;;8.51;91.56;100995.55;1735995;81;21463;-45
2021/10/14 08:07:31;;;;;;;24.87;14.25;;;;;;;8.53;92.14;100999.86;1735975;82;20843;-43
2021/10/14 08:09:59;;;;;;;20.30;13.35;;;;;;;8.52;91.04;101005.89;1736065;82;20937;-44
2021/10/14 08:12:26;;;;;;;18.50;11.75;;;;;;;8.54;90.70;101010.62;1736280;82;21007;-44
2021/10/14 08:14:53;;;;;;;15.68;11.68;;;;;;;8.61;91.43;101011.48;1736163;82;21431;-44
2021/10/14 08:17:20;;;;;;;24.60;12.58;;;;;;;8.74;91.25;101009.28;1736168;81;21384;-44
2021/10/14 08:19:46;;;;;;;21.62;13.20;;;;;;;8.84;89.24;101010.55;1736142;82;21922;-44
2021/10/14 08:22:12;;;;;;;21.25;14.03;;;;;;;8.87;88.71;101019.60;1736067;82;20936;-44
2021/10/14 08:24:40;;;;;;;26.12;13.88;;;;;;;8.85;88.87;101020.88;1736384;82;20948;-43
2021/10/14 08:27:06;;;;;;;38.35;14.45;;;;;;;8.87;88.84;101022.19;1714890;82;21490;-45
2021/10/14 08:29:33;;;;;;;29.35;14.35;;;;;;;8.88;89.28;101017.45;1736185;82;21312;-44
2021/10/14 08:32:02;;;;;;;25.97;14.68;;;;;;;8.96;89.96;101014.81;1736126;82;21752;-44
2021/10/14 08:34:29;;;;;;;20.97;13.05;;;;;;;9.08;88.75;101006.17;1736168;82;20909;-44
2021/10/14 08:36:56;;;;;;;18.75;13.03;;;;;;;9.20;89.37;101026.81;1715411;82;20972;-44
2021/10/14 08:39:23;;;;;;;23.73;15.13;;;;;;;9.35;87.84;101028.47;1736458;82;21522;-44
2021/10/14 08:41:50;;;;;;;22.37;14.03;;;;;;;9.41;86.48;101025.02;1715376;81;21379;-45
2021/10/14 08:44:25;;;;;;;23.77;12.68;;;;;;;9.45;86.28;101019.80;1736385;82;21107;-44
2021/10/14 08:46:49;;;;;;;20.72;12.40;;;;;;;9.50;85.94;101026.25;1735725;82;21484;-44
2021/10/14 08:49:15;;;;;;;24.72;13.40;;;;;;;9.45;85.54;101043.06;1736156;82;21040;-44
2021/10/14 08:51:43;;;;;;;20.10;12.98;;;;;;;9.36;85.94;101048.73;1736141;82;20925;-44
2021/10/14 08:54:10;;;;;;;24.07;15.32;;;;;;;9.25;86.63;101055.22;1736310;82;21518;-44
2021/10/14 08:56:44;;;;;;;24.18;14.53;;;;;;;9.11;87.07;101045.78;1736186;82;21147;-43
2021/10/14 08:59:12;;;;;;;22.82;14.03;;;;;;;8.96;87.80;101060.88;1734838;82;22209;-43
2021/10/14 09:01:44;;;;;;;20.00;12.88;;;;;;;8.85;88.32;101063.48;1736423;82;20936;-44
2021/10/14 09:04:15;;;;;;;22.20;13.05;;;;;;;8.71;88.99;101079.41;1735102;82;20944;-44
2021/10/14 09:06:42;;;;;;;20.17;12.88;;;;;;;8.63;89.02;101076.85;1736414;82;20875;-44
2021/10/14 09:09:08;;;;;;;27.30;13.35;;;;;;;8.57;88.92;101084.16;1736075;81;21180;-44
2021/10/14 09:11:35;;;;;;;21.45;13.05;;;;;;;8.52;89.14;101088.88;1715347;82;20925;-47
2021/10/14 09:14:06;;;;;;;18.42;12.37;;;;;;;8.50;89.72;101090.19;1736237;82;21426;-43
2021/10/14 09:16:39;;;;;;;17.35;11.80;;;;;;;8.53;89.35;101091.47;1736378;82;20980;-44
2021/10/14 09:19:23;;;;;;;17.67;11.85;;;;;;;8.54;89.67;101095.77;1736067;82;20937;-44
2021/10/14 09:21:59;;;;;;;19.50;12.53;;;;;;;8.56;89.69;101099.21;1736052;82;21449;-44
2021/10/14 09:24:35;;;;;;;18.00;11.78;;;;;;;8.65;89.67;101094.48;1735948;82;20980;-44
2021/10/14 09:27:07;;;;;;;20.48;11.25;;;;;;;8.76;89.02;101099.64;1736287;82;21328;-45
2021/10/14 09:29:37;;;;;;;17.02;11.70;;;;;;;8.87;88.35;101112.09;1736314;82;20885;-44
2021/10/14 09:32:07;;;;;;;13.28;10.23;;;;;;;8.91;86.90;101113.81;1739801;82;20886;-44
2021/10/14 09:34:39;;;;;;;16.27;10.45;;;;;;;8.99;86.79;101109.09;1735867;82;21088;-44
2021/10/14 09:37:17;;;;;;;18.98;10.93;;;;;;;9.16;86.18;101106.03;1715042;82;20948;-45
2021/10/14 09:40:03;;;;;;;21.90;10.98;;;;;;;9.36;85.33;101102.53;1733196;82;20989;-43
2021/10/14 09:42:54;;;;;;;16.45;9.88;;;;;;;9.61;85.14;101100.74;1736259;82;20909;-44
2021/10/14 09:45:33;;;;;;;23.20;10.05;;;;;;;9.85;82.77;101104.50;1737834;81;20913;-44
2021/10/14 09:48:08;;;;;;;19.23;10.18;;;;;;;10.08;81.18;101086.70;1714666;82;21240;-43
2021/10/14 09:50:42;;;;;;;12.85;9.15;;;;;;;10.30;78.32;101090.87;1744217;82;21415;-45
2021/10/14 09:53:22;;;;;;;13.10;9.28;;;;;;;10.25;76.45;101090.05;1744260;81;20960;-45
2021/10/14 09:55:50;;;;;;;13.38;9.15;;;;;;;10.25;77.52;101089.17;1714461;82;20992;-43
2021/10/14 09:58:17;;;;;;;21.15;10.30;;;;;;;10.41;76.82;101103.77;1714853;82;21004;-44
2021/10/14 10:00:44;;;;;;;18.85;9.70;;;;;;;10.59;75.96;101100.59;1744444;82;21835;-44
2021/10/14 10:03:17;;;;;;;32.10;10.00;;;;;;;10.77;75.35;101097.00;1744208;81;20948;-43
2021/10/14 10:05:49;;;;;;;16.27;10.03;;;;;;;10.88;74.86;101112.45;1744363;82;20920;-44
2021/10/14 10:08:34;;;;;;;13.48;8.50;;;;;;;10.89;72.66;101121.48;1744072;81;21493;-42
2021/10/14 10:11:10;;;;;;;9.78;8.05;;;;;;;10.84;73.78;101118.08;1744257;82;20972;-44
2021/10/14 10:13:45;;;;;;;25.75;10.80;;;;;;;10.88;73.12;101121.52;1744295;82;20941;-44
2021/10/14 10:16:19;;;;;;;14.55;9.05;;;;;;;11.08;73.54;101126.50;1744129;81;20971;-44
2021/10/14 10:18:51;;;;;;;36.55;10.32;;;;;;;11.17;71.84;101116.03;1744185;82;21565;-44
2021/10/14 10:21:35;;;;;;;17.92;8.08;;;;;;;11.19;72.54;101120.75;1744414;82;20984;-45
2021/10/14 10:24:06;;;;;;;11.60;8.10;;;;;;;11.32;70.68;101138.78;1744246;82;20924;-44
2021/10/14 10:26:38;;;;;;;47.90;10.43;;;;;;;11.30;70.67;101128.87;1743758;82;21163;-44
2021/10/14 10:29:17;;;;;;;17.35;7.92;;;;;;;11.28;71.66;101144.42;1744202;82;20964;-45
2021/10/14 10:31:55;;;;;;;15.10;8.05;;;;;;;11.26;69.72;101147.47;1714859;82;20940;-45
2021/10/14 10:34:53;;;;;;;24.98;9.75;;;;;;;11.12;70.71;101149.36;1744185;82;20944;-45
2021/10/14 10:37:41;;;;;;;16.87;8.33;;;;;;;11.18;70.27;101154.48;1744579;81;20917;-44
2021/10/14 10:40:21;;;;;;;37.35;8.43;;;;;;;11.39;70.37;101149.50;1736910;82;21157;-45
2021/10/14 10:43:05;;;;;;;34.58;8.03;;;;;;;11.69;69.68;101159.09;1744406;81;20983;-44
2021/10/14 10:45:46;;;;;;;21.70;7.62;;;;;;;11.78;68.11;101156.84;1742607;81;20973;-44
2021/10/14 10:48:13;;;;;;;22.55;8.13;;;;;;;11.86;68.54;101177.05;1734141;82;20933;-44
2021/10/14 10:50:45;;;;;;;40.58;8.25;;;;;;;11.84;68.18;101178.80;1736096;82;20945;-44
2021/10/14 10:53:23;;;;;;;21.00;8.18;;;;;;;11.83;68.64;101185.33;1715114;82;21038;-44
2021/10/14 10:55:57;;;;;;;26.57;7.67;;;;;;;11.72;68.06;101183.70;1735739;81;21009;-44
2021/10/14 10:58:46;;;;;;;17.90;7.70;;;;;;;11.66;68.43;101190.25;1736272;82;21644;-45
2021/10/14 11:01:14;;;;;;;9.63;6.87;;;;;;;11.58;68.15;101188.20;1735986;82;20976;-44
2021/10/14 11:03:56;;;;;;;12.25;6.25;;;;;;;11.55;67.89;101184.34;1736270;82;21420;-44
2021/10/14 11:06:23;;;;;;;15.75;6.00;;;;;;;11.50;68.59;101201.23;1735924;82;21139;-44
2021/10/14 11:08:51;;;;;;;24.60;6.50;;;;;;;11.61;68.53;101195.94;1736054;82;20874;-44
2021/10/14 11:11:19;;;;;;;11.50;6.83;;;;;;;11.77;66.86;101196.20;1735815;81;20972;-44
2021/10/14 11:13:52;;;;;;;24.35;7.20;;;;;;;11.73;66.71;101203.56;1736225;81;21008;-45
2021/10/14 11:16:22;;;;;;;20.30;7.92;;;;;;;11.74;67.12;101196.20;1736107;82;20965;-44
2021/10/14 11:18:51;;;;;;;29.35;7.75;;;;;;;11.77;67.33;101197.49;1736359;81;21103;-44
2021/10/14 11:21:20;;;;;;;22.82;7.58;;;;;;;11.84;65.94;101207.34;1714792;82;21534;-46
2021/10/14 11:23:50;;;;;;;24.20;6.65;;;;;;;11.88;65.75;101206.87;1714676;82;20940;-44
2021/10/14 11:26:36;;;;;;;18.32;6.55;;;;;;;11.93;65.51;101210.27;1733191;82;20941;-43